Time;durP1;ratioP1;P1;durP2;ratioP2;P2;SDS_P1;SDS_P2;PMS_P1;PMS_P2;Temp;Humidity;BMP_temperature;BMP_pressure;BME280_temperature;BME280_humidity;BME280_pressure;Samples;Min_cycle;Max_cycle;Signal;HPM_P1;HPM_P2
2021/09/28 00:00:04;;;;;;;3.10;1.98;;;11.00;98.30;;;;;;5116241;28;20037;-91
2021/09/28 00:02:30;;;;;;;3.05;1.92;;;11.00;98.40;;;;;;5115171;28;20019;-91
2021/09/28 00:04:56;;;;;;;2.08;1.77;;;10.90;98.80;;;;;;5115352;28;20028;-91
2021/09/28 00:07:21;;;;;;;3.53;2.10;;;10.90;98.60;;;;;;5115125;28;20208;-91
2021/09/28 00:09:47;;;;;;;1.70;1.60;;;10.90;99.00;;;;;;5115602;28;20061;-91
2021/09/28 00:12:13;;;;;;;2.50;1.67;;;10.80;98.80;;;;;;5115508;28;20024;-91
2021/09/28 00:14:39;;;;;;;2.70;1.75;;;10.80;99.00;;;;;;5114963;28;20114;-91
2021/09/28 00:17:05;;;;;;;2.70;1.80;;;10.80;99.50;;;;;;5115913;28;20020;-91
2021/09/28 00:19:31;;;;;;;2.25;2.05;;;10.70;99.20;;;;;;5114554;28;20020;-91
2021/09/28 00:21:56;;;;;;;2.38;1.90;;;10.60;99.50;;;;;;5114567;28;20019;-91
2021/09/28 00:24:22;;;;;;;3.40;2.53;;;10.60;99.60;;;;;;5114713;28;20062;-91
2021/09/28 00:26:48;;;;;;;3.20;2.20;;;10.50;99.90;;;;;;5115031;28;20450;-91
2021/09/28 00:29:13;;;;;;;1.95;1.13;;;10.50;99.90;;;;;;5114797;28;20063;-91
2021/09/28 00:31:39;;;;;;;2.97;2.35;;;10.40;99.90;;;;;;5114603;28;20020;-91
2021/09/28 00:34:05;;;;;;;2.10;1.63;;;10.30;99.90;;;;;;5114406;28;20366;-91
2021/09/28 00:36:31;;;;;;;2.08;1.40;;;10.30;99.90;;;;;;5115131;28;20027;-91
2021/09/28 00:38:56;;;;;;;2.15;1.63;;;10.30;99.90;;;;;;5114364;28;20026;-91
2021/09/28 00:41:22;;;;;;;2.78;1.85;;;10.30;99.90;;;;;;5114397;28;20024;-90
2021/09/28 00:43:54;;;;;;;2.00;1.63;;;10.20;99.90;;;;;;5115549;28;20020;-90
2021/09/28 00:46:20;;;;;;;3.35;2.35;;;10.20;99.90;;;;;;5115051;28;20110;-91
2021/09/28 00:48:46;;;;;;;2.47;1.80;;;10.10;99.90;;;;;;5115540;28;20027;-91
2021/09/28 00:51:14;;;;;;;2.80;2.15;;;10.10;99.90;;;;;;5115142;28;20319;-91
2021/09/28 00:53:40;;;;;;;2.92;1.88;;;10.00;99.90;;;;;;5114411;28;20023;-91
2021/09/28 00:56:08;;;;;;;3.67;2.03;;;10.00;99.90;;;;;;5115001;28;20073;-91
2021/09/28 00:58:35;;;;;;;2.78;2.17;;;10.00;99.90;;;;;;5114316;28;20065;-91
2021/09/28 01:01:03;;;;;;;2.60;1.83;;;9.90;99.90;;;;;;5114353;28;20024;-91
2021/09/28 01:03:31;;;;;;;2.55;1.85;;;9.90;99.90;;;;;;5114710;28;20020;-90
2021/09/28 01:05:57;;;;;;;4.53;2.38;;;9.90;99.90;;;;;;5114120;28;20122;-91
2021/09/28 01:08:23;;;;;;;2.85;1.90;;;9.80;99.90;;;;;;5114247;28;20066;-91
2021/09/28 01:10:49;;;;;;;3.03;1.92;;;9.80;99.90;;;;;;5114131;28;20024;-90
2021/09/28 01:13:14;;;;;;;3.05;1.35;;;9.70;99.90;;;;;;5114358;28;20015;-91
2021/09/28 01:15:47;;;;;;;2.60;2.00;;;9.70;99.90;;;;;;5113963;28;20026;-91
2021/09/28 01:18:12;;;;;;;7.40;2.42;;;9.70;99.90;;;;;;5113766;28;20027;-91
2021/09/28 01:20:38;;;;;;;2.45;1.83;;;9.70;99.90;;;;;;5116921;28;20073;-91
2021/09/28 01:23:04;;;;;;;2.53;1.70;;;9.70;99.90;;;;;;5118326;28;20366;-91
2021/09/28 01:25:31;;;;;;;2.40;1.50;;;9.60;99.90;;;;;;5117989;28;20020;-91
2021/09/28 01:27:57;;;;;;;2.63;1.98;;;9.60;99.90;;;;;;5119185;28;20023;-91
2021/09/28 01:30:22;;;;;;;2.60;1.80;;;9.60;99.90;;;;;;5117991;28;20072;-91
2021/09/28 01:32:48;;;;;;;3.97;2.22;;;9.60;99.90;;;;;;5118518;28;20019;-91
2021/09/28 01:35:14;;;;;;;3.72;2.38;;;9.50;99.90;;;;;;5118580;28;20430;-90
2021/09/28 01:37:39;;;;;;;2.83;2.13;;;9.50;99.90;;;;;;5117749;28;20087;-91
2021/09/28 01:40:05;;;;;;;3.25;2.65;;;9.50;99.90;;;;;;5117782;28;20034;-91
2021/09/28 01:42:31;;;;;;;3.22;2.13;;;9.50;99.90;;;;;;5118053;28;20051;-91
2021/09/28 01:44:57;;;;;;;3.17;2.33;;;9.50;99.90;;;;;;5117934;28;20072;-91
2021/09/28 01:47:22;;;;;;;2.38;1.98;;;9.40;99.90;;;;;;5118019;28;20436;-91
2021/09/28 01:49:48;;;;;;;3.35;2.65;;;9.50;99.90;;;;;;5117828;28;20020;-91
2021/09/28 01:52:14;;;;;;;2.85;2.15;;;9.40;99.90;;;;;;5118525;28;20031;-91
2021/09/28 01:54:40;;;;;;;3.20;2.05;;;9.40;99.90;;;;;;5117808;28;20050;-91
2021/09/28 01:57:05;;;;;;;3.42;2.25;;;9.40;99.90;;;;;;5117355;28;20054;-91
2021/09/28 01:59:31;;;;;;;5.20;2.65;;;9.30;99.90;;;;;;5117880;28;20139;-90
2021/09/28 02:01:57;;;;;;;8.00;2.63;;;9.30;99.90;;;;;;5118151;28;20047;-91
2021/09/28 02:04:23;;;;;;;3.28;2.10;;;9.30;99.90;;;;;;5118157;28;20024;-91
2021/09/28 02:06:49;;;;;;;2.17;1.73;;;9.30;99.90;;;;;;5119323;28;20026;-91
2021/09/28 02:09:15;;;;;;;4.72;2.05;;;9.30;99.90;;;;;;5118365;28;20392;-90
2021/09/28 02:11:40;;;;;;;5.45;2.78;;;9.20;99.90;;;;;;5119147;28;20022;-90
2021/09/28 02:14:08;;;;;;;3.15;1.77;;;9.20;99.90;;;;;;5119342;28;20019;-90
2021/09/28 02:16:34;;;;;;;1.83;1.65;;;9.20;99.90;;;;;;5118106;28;20020;-91
2021/09/28 02:19:00;;;;;;;4.00;2.00;;;9.20;99.90;;;;;;5118446;28;20076;-91
2021/09/28 02:21:26;;;;;;;3.95;2.72;;;9.10;99.90;;;;;;5117861;28;20032;-90
2021/09/28 02:23:52;;;;;;;3.25;2.17;;;9.10;99.90;;;;;;5118513;28;20074;-91
2021/09/28 02:26:18;;;;;;;4.20;2.60;;;9.10;99.90;;;;;;5117753;28;20041;-91
2021/09/28 02:28:44;;;;;;;2.75;2.03;;;9.10;99.90;;;;;;5119475;28;20019;-91
2021/09/28 02:31:10;;;;;;;3.22;1.67;;;9.10;99.90;;;;;;5118019;28;20088;-90
2021/09/28 02:33:36;;;;;;;2.88;1.98;;;9.00;99.90;;;;;;5118025;28;20027;-91
2021/09/28 02:36:02;;;;;;;3.35;2.30;;;9.00;99.90;;;;;;5117992;28;20462;-90
2021/09/28 02:38:27;;;;;;;2.47;1.92;;;9.00;99.90;;;;;;5118139;28;20023;-90
2021/09/28 02:40:53;;;;;;;2.80;2.10;;;9.00;99.90;;;;;;5118185;28;20060;-90
2021/09/28 02:43:19;;;;;;;4.00;1.95;;;9.00;99.90;;;;;;5118925;28;20047;-90
2021/09/28 02:45:47;;;;;;;3.38;2.15;;;9.00;99.90;;;;;;5117940;28;20027;-90
2021/09/28 02:48:15;;;;;;;5.15;2.63;;;9.00;99.90;;;;;;5117791;28;20446;-89
2021/09/28 02:50:41;;;;;;;4.47;2.85;;;8.90;99.90;;;;;;5117867;28;20020;-90
2021/09/28 02:53:06;;;;;;;3.30;2.03;;;8.90;99.90;;;;;;5118500;28;20027;-90
2021/09/28 02:55:32;;;;;;;3.10;2.15;;;8.90;99.90;;;;;;5118026;28;20030;-90
2021/09/28 02:57:58;;;;;;;3.35;2.22;;;8.90;99.90;;;;;;5117695;28;20054;-91
2021/09/28 03:00:23;;;;;;;3.80;2.30;;;8.90;99.90;;;;;;5117830;28;20026;-91
2021/09/28 03:02:49;;;;;;;3.88;2.38;;;8.90;99.90;;;;;;5117968;28;20027;-90
2021/09/28 03:05:15;;;;;;;4.45;2.63;;;8.90;99.90;;;;;;5117872;28;20023;-90
2021/09/28 03:07:41;;;;;;;3.00;2.65;;;8.80;99.90;;;;;;5117724;28;20024;-90
2021/09/28 03:10:07;;;;;;;6.07;2.92;;;8.90;99.90;;;;;;5118380;28;20069;-90
2021/09/28 03:12:33;;;;;;;4.22;2.70;;;8.80;99.90;;;;;;5117554;28;20465;-91
2021/09/28 03:14:58;;;;;;;4.32;3.00;;;8.80;99.90;;;;;;5117944;28;20026;-91
2021/09/28 03:17:25;;;;;;;3.58;2.28;;;8.80;99.90;;;;;;5118024;28;20031;-91
2021/09/28 03:19:52;;;;;;;4.05;2.55;;;8.80;99.90;;;;;;5118849;28;20461;-91
2021/09/28 03:22:18;;;;;;;3.25;2.40;;;8.80;99.90;;;;;;5117271;28;20068;-91
2021/09/28 03:24:44;;;;;;;4.35;2.90;;;8.80;99.90;;;;;;5118380;28;20043;-90
2021/09/28 03:27:09;;;;;;;2.60;2.22;;;8.70;99.90;;;;;;5117128;28;20045;-90
2021/09/28 03:29:35;;;;;;;4.47;2.28;;;8.70;99.90;;;;;;5117201;28;20027;-90
2021/09/28 03:32:01;;;;;;;5.20;2.58;;;8.70;99.90;;;;;;5117671;28;20051;-90
2021/09/28 03:34:27;;;;;;;4.65;2.95;;;8.70;99.90;;;;;;5117547;28;20365;-91
2021/09/28 03:36:52;;;;;;;3.92;2.75;;;8.70;99.90;;;;;;5116634;28;20478;-91
2021/09/28 03:39:18;;;;;;;4.68;2.22;;;8.70;99.90;;;;;;5116582;28;20110;-91
2021/09/28 03:41:45;;;;;;;2.65;2.08;;;8.70;99.90;;;;;;5116920;28;20019;-91
2021/09/28 03:44:11;;;;;;;4.43;2.60;;;8.60;99.90;;;;;;5117174;28;20072;-91
2021/09/28 03:46:36;;;;;;;4.00;3.30;;;8.60;99.90;;;;;;5117190;28;20024;-91
2021/09/28 03:49:02;;;;;;;4.40;2.63;;;8.60;99.90;;;;;;5118311;28;20027;-91
2021/09/28 03:51:28;;;;;;;4.43;3.05;;;8.60;99.90;;;;;;5116715;28;20024;-91
2021/09/28 03:53:54;;;;;;;6.25;3.65;;;8.60;99.90;;;;;;5116547;28;20019;-91
2021/09/28 03:56:20;;;;;;;6.28;3.85;;;8.60;99.90;;;;;;5116600;28;20024;-91
2021/09/28 03:58:46;;;;;;;4.70;2.85;;;8.60;99.90;;;;;;5116226;28;20138;-90
2021/09/28 04:01:12;;;;;;;5.85;2.75;;;8.60;99.90;;;;;;5116078;28;20043;-91
2021/09/28 04:03:41;;;;;;;4.00;2.47;;;8.60;99.90;;;;;;5117025;28;20027;-91
2021/09/28 04:06:07;;;;;;;4.50;3.10;;;8.60;99.90;;;;;;5116830;28;20392;-90
2021/09/28 04:08:32;;;;;;;3.35;2.15;;;8.60;99.90;;;;;;5116558;28;20158;-91
2021/09/28 04:10:58;;;;;;;5.82;3.10;;;8.60;99.90;;;;;;5116989;28;20047;-91
2021/09/28 04:13:25;;;;;;;3.10;2.50;;;8.60;99.90;;;;;;5116805;28;20019;-91
2021/09/28 04:15:52;;;;;;;5.15;3.67;;;8.60;99.90;;;;;;5115732;28;20023;-91
2021/09/28 04:18:18;;;;;;;4.90;2.58;;;8.60;99.90;;;;;;5116310;28;20027;-91
2021/09/28 04:20:45;;;;;;;4.43;2.42;;;8.60;99.90;;;;;;5115842;28;20035;-91
2021/09/28 04:23:12;;;;;;;5.75;2.67;;;8.60;99.90;;;;;;5116738;28;20098;-91
2021/09/28 04:25:38;;;;;;;2.95;2.10;;;8.60;99.90;;;;;;5116366;28;20472;-89
2021/09/28 04:28:05;;;;;;;4.93;3.58;;;8.70;99.90;;;;;;5115703;28;20027;-91
2021/09/28 04:30:31;;;;;;;3.95;2.83;;;8.70;99.90;;;;;;5115189;28;20023;-91
2021/09/28 04:32:57;;;;;;;6.10;3.72;;;8.80;99.90;;;;;;5115343;28;20020;-91
2021/09/28 04:35:23;;;;;;;4.07;2.83;;;8.80;99.90;;;;;;5115390;28;20024;-91
2021/09/28 04:37:48;;;;;;;4.55;2.42;;;8.80;99.90;;;;;;5115300;28;20023;-90
2021/09/28 04:40:14;;;;;;;3.80;2.50;;;8.90;99.90;;;;;;5115384;28;20030;-90
2021/09/28 04:42:40;;;;;;;5.75;3.60;;;8.90;99.90;;;;;;5115477;28;20031;-91
2021/09/28 04:45:07;;;;;;;5.75;3.05;;;8.90;99.90;;;;;;5115399;28;20048;-91
2021/09/28 04:47:33;;;;;;;4.22;3.05;;;9.00;99.90;;;;;;5115870;28;20097;-91
2021/09/28 04:49:58;;;;;;;5.82;3.08;;;9.00;99.90;;;;;;5115374;28;20027;-91
2021/09/28 04:52:24;;;;;;;4.50;2.78;;;9.00;99.90;;;;;;5115277;28;20016;-92
2021/09/28 04:54:50;;;;;;;4.28;3.05;;;9.10;99.90;;;;;;5114603;28;20031;-91
2021/09/28 04:57:15;;;;;;;4.00;2.28;;;9.00;99.90;;;;;;5114713;28;20491;-90
2021/09/28 04:59:41;;;;;;;5.75;2.50;;;9.10;99.90;;;;;;5115528;28;20056;-91
2021/09/28 05:02:07;;;;;;;3.60;2.67;;;9.10;99.90;;;;;;5115389;28;20506;-91
2021/09/28 05:04:33;;;;;;;5.75;3.50;;;9.10;99.90;;;;;;5114458;28;20023;-92
2021/09/28 05:06:58;;;;;;;3.95;2.70;;;9.10;99.90;;;;;;5094170;28;20024;-91
2021/09/28 05:09:24;;;;;;;5.03;2.90;;;9.20;99.90;;;;;;5090457;28;20469;-91
2021/09/28 05:11:50;;;;;;;3.83;1.88;;;9.20;99.90;;;;;;5073774;28;20023;-91
2021/09/28 05:14:15;;;;;;;4.68;2.80;;;9.30;99.90;;;;;;5076250;28;20462;-91
2021/09/28 05:16:41;;;;;;;4.25;2.90;;;9.40;99.90;;;;;;5084492;28;20020;-90
2021/09/28 05:19:07;;;;;;;4.75;3.30;;;9.50;99.90;;;;;;5094940;28;20031;-90
2021/09/28 05:21:33;;;;;;;4.88;3.40;;;9.50;99.90;;;;;;5094322;28;20039;-90
2021/09/28 05:23:59;;;;;;;3.70;2.30;;;9.60;99.90;;;;;;5074175;28;20062;-91
2021/09/28 05:26:25;;;;;;;4.35;2.45;;;9.60;99.90;;;;;;5073443;28;20023;-91
2021/09/28 05:28:51;;;;;;;3.30;2.20;;;9.70;99.90;;;;;;5076929;28;20024;-91
2021/09/28 05:31:17;;;;;;;4.50;2.60;;;9.80;99.90;;;;;;5085680;28;20103;-91
2021/09/28 05:33:43;;;;;;;5.55;3.17;;;9.90;99.90;;;;;;5094275;28;20039;-91
2021/09/28 05:36:09;;;;;;;4.30;2.95;;;10.00;99.90;;;;;;5085743;28;20020;-90
2021/09/28 05:38:35;;;;;;;3.92;3.28;;;10.10;99.90;;;;;;5075099;28;20032;-91
2021/09/28 05:41:06;;;;;;;3.80;3.10;;;10.10;99.90;;;;;;5078717;28;20055;-90
2021/09/28 05:43:33;;;;;;;3.75;2.58;;;10.20;99.90;;;;;;5076730;28;20056;-92
2021/09/28 05:45:58;;;;;;;4.43;3.15;;;10.30;99.90;;;;;;5293800;22;20373;-90
2021/09/28 05:48:24;;;;;;;4.68;3.17;;;10.30;99.90;;;;;;5028470;28;20025;-90
2021/09/28 05:50:50;;;;;;;4.35;2.63;;;10.40;99.90;;;;;;5020290;28;20472;-91
2021/09/28 05:53:16;;;;;;;5.53;3.80;;;10.40;99.90;;;;;;5015596;28;20449;-93
2021/09/28 05:55:42;;;;;;;5.55;3.38;;;10.40;99.90;;;;;;5018553;28;20377;-92
2021/09/28 05:58:08;;;;;;;4.95;3.55;;;10.50;99.90;;;;;;5033331;28;20120;-92
2021/09/28 06:00:33;;;;;;;6.05;3.60;;;10.60;99.90;;;;;;5032808;28;20107;-92
2021/09/28 06:02:59;;;;;;;4.20;2.47;;;10.60;99.90;;;;;;5033132;28;20030;-92
2021/09/28 06:05:25;;;;;;;4.72;2.85;;;10.60;99.90;;;;;;5031408;28;20032;-92
2021/09/28 06:07:51;;;;;;;5.45;3.42;;;10.70;99.90;;;;;;5022089;28;20025;-92
2021/09/28 06:10:17;;;;;;;4.22;3.30;;;10.70;99.90;;;;;;5019738;28;20033;-92
2021/09/28 06:12:45;;;;;;;3.42;2.70;;;10.70;99.90;;;;;;5019624;28;20025;-91
2021/09/28 06:15:12;;;;;;;3.05;2.35;;;10.70;99.90;;;;;;5016303;28;20030;-92
2021/09/28 06:17:37;;;;;;;4.15;2.70;;;10.70;99.90;;;;;;5016434;28;20108;-92
2021/09/28 06:20:04;;;;;;;3.55;2.45;;;10.80;99.90;;;;;;5017535;28;20121;-91
2021/09/28 06:22:30;;;;;;;4.00;2.83;;;10.90;99.90;;;;;;5016959;28;20026;-92
2021/09/28 06:24:55;;;;;;;3.95;2.85;;;11.00;99.90;;;;;;5021699;28;20026;-92
2021/09/28 06:27:23;;;;;;;3.47;2.65;;;11.00;99.90;;;;;;5024509;28;20021;-92
2021/09/28 06:29:50;;;;;;;5.90;3.65;;;11.00;99.90;;;;;;5027520;28;20033;-92
2021/09/28 06:32:18;;;;;;;3.78;2.85;;;11.00;99.90;;;;;;5028438;28;20048;-92
2021/09/28 06:34:46;;;;;;;4.05;3.00;;;11.00;99.90;;;;;;5027625;28;20029;-92
2021/09/28 06:37:12;;;;;;;4.35;3.05;;;11.00;99.90;;;;;;5035999;28;20026;-91
2021/09/28 06:39:38;;;;;;;4.07;2.88;;;11.00;99.90;;;;;;5027975;28;20484;-92
2021/09/28 06:42:04;;;;;;;3.35;2.70;;;11.10;99.90;;;;;;5033519;28;20435;-92
2021/09/28 06:44:30;;;;;;;3.33;2.63;;;11.20;99.90;;;;;;5036388;28;20060;-91
2021/09/28 06:46:56;;;;;;;3.35;2.95;;;11.30;99.90;;;;;;5035657;28;20067;-93
2021/09/28 06:49:22;;;;;;;4.35;2.70;;;11.30;99.90;;;;;;5035943;28;20032;-91
2021/09/28 06:51:48;;;;;;;4.15;2.83;;;11.30;99.90;;;;;;5035721;28;20029;-92
2021/09/28 06:54:14;;;;;;;4.03;2.67;;;11.30;99.90;;;;;;5037166;28;20431;-91
2021/09/28 06:56:41;;;;;;;4.63;3.40;;;11.40;99.90;;;;;;5035279;28;20083;-91
2021/09/28 06:59:08;;;;;;;3.45;2.67;;;11.40;99.90;;;;;;5035453;28;20029;-90
2021/09/28 07:01:35;;;;;;;3.83;2.88;;;11.40;99.60;;;;;;5036137;28;20040;-91
2021/09/28 07:04:02;;;;;;;3.95;3.28;;;11.50;99.30;;;;;;5035362;28;20025;-91
2021/09/28 07:06:27;;;;;;;3.88;3.22;;;11.50;99.10;;;;;;5035678;28;20026;-91
2021/09/28 07:08:54;;;;;;;3.55;2.97;;;11.50;99.10;;;;;;5034631;28;20177;-92
2021/09/28 07:11:19;;;;;;;5.00;4.00;;;11.50;99.10;;;;;;5034353;28;20037;-91
2021/09/28 07:13:46;;;;;;;3.25;2.67;;;11.50;98.90;;;;;;5034808;28;20029;-92
2021/09/28 07:16:13;;;;;;;4.97;3.20;;;11.50;98.80;;;;;;5034560;28;20025;-92
2021/09/28 07:18:39;;;;;;;3.85;2.60;;;11.50;98.90;;;;;;5034508;28;20476;-92
2021/09/28 07:21:05;;;;;;;4.32;2.97;;;11.50;98.70;;;;;;5035393;28;20037;-91
2021/09/28 07:23:31;;;;;;;5.90;3.05;;;11.50;98.80;;;;;;5035778;28;20026;-91
2021/09/28 07:25:57;;;;;;;5.25;3.60;;;11.50;98.40;;;;;;5035026;28;20021;-92
2021/09/28 07:28:23;;;;;;;5.03;3.22;;;11.60;98.50;;;;;;5035220;28;20029;-91
2021/09/28 07:30:50;;;;;;;4.68;2.95;;;11.60;98.80;;;;;;5034212;28;20073;-93
2021/09/28 07:33:17;;;;;;;3.47;2.50;;;11.70;98.80;;;;;;5034380;28;20033;-93
2021/09/28 07:35:46;;;;;;;5.03;2.70;;;11.90;98.60;;;;;;5036166;28;20040;-93
2021/09/28 07:38:40;;;;;;;3.53;2.95;;;12.00;98.40;;;;;;5035899;28;20102;-95
2021/09/28 07:41:08;;;;;;;9.75;3.40;;;12.10;97.30;;;;;;5029947;28;20049;-93
2021/09/28 07:43:51;;;;;;;4.72;3.03;;;12.10;97.50;;;;;;5004986;28;20042;-96
2021/09/28 07:46:17;;;;;;;4.55;2.97;;;12.20;97.80;;;;;;5036426;28;20121;-95
2021/09/28 07:48:57;;;;;;;4.95;3.38;;;12.20;97.70;;;;;;5020536;28;20033;-94
2021/09/28 07:51:37;;;;;;;5.00;3.42;;;12.30;97.00;;;;;;5031968;28;20046;-95
2021/09/28 07:54:04;;;;;;;5.47;3.05;;;12.40;97.10;;;;;;5021028;28;20033;-96
2021/09/28 07:56:36;;;;;;;4.63;3.50;;;12.40;97.20;;;;;;5024376;28;20133;-95
2021/09/28 07:59:13;;;;;;;5.68;4.05;;;12.40;96.50;;;;;;5038005;28;20040;-95
2021/09/28 08:01:43;;;;;;;4.10;2.95;;;12.30;96.10;;;;;;5022468;28;20099;-94
2021/09/28 08:04:20;;;;;;;4.97;3.42;;;12.30;96.80;;;;;;5021792;28;20037;-94
2021/09/28 08:07:17;;;;;;;3.92;3.50;;;12.40;96.80;;;;;;5033462;28;20030;-96
2021/09/28 08:09:56;;;;;;;5.28;3.10;;;12.40;96.50;;;;;;5033246;28;20081;-95
2021/09/28 08:12:27;;;;;;;3.63;2.85;;;12.50;96.70;;;;;;5045054;28;20036;-94
2021/09/28 08:15:16;;;;;;;;;;;12.60;97.00;;;;;;5048111;28;20031;-95
2021/09/28 08:17:52;;;;;;;5.13;3.33;;;12.80;96.70;;;;;;5031918;28;19911;-94
2021/09/28 08:20:26;;;;;;;3.40;2.50;;;13.00;96.20;;;;;;5034160;28;20029;-96
2021/09/28 08:23:07;;;;;;;2.83;2.25;;;13.10;95.80;;;;;;5037097;28;20121;-96
2021/09/28 08:31:11;;;;;;;5.47;3.22;;;13.40;95.60;;;;;;5038600;28;20070;-96
2021/09/28 08:33:45;;;;;;;3.97;2.67;;;13.50;95.00;;;;;;5009592;28;20038;-96
2021/09/28 08:36:15;;;;;;;5.25;3.20;;;13.50;95.10;;;;;;5031279;28;20080;-95
2021/09/28 08:39:36;;;;;;;6.95;3.05;;;13.50;95.00;;;;;;5023166;28;20040;-95
2021/09/28 08:42:20;;;;;;;3.78;2.78;;;13.60;93.80;;;;;;5028759;28;20116;-94
2021/09/28 08:44:52;;;;;;;;;;;13.70;95.10;;;;;;5028753;28;20469;-95
2021/09/28 08:47:39;;;;;;;4.75;3.10;;;13.70;92.90;;;;;;5031493;28;19917;-95
2021/09/28 08:50:22;;;;;;;;;;;;;;;;;;;;;
2021/09/28 08:52:52;;;;;;;3.53;2.70;;;13.90;94.30;;;;;;5029483;28;20133;-94
2021/09/28 08:55:32;;;;;;;4.80;3.30;;;13.90;93.80;;;;;;5037462;28;20108;-96
2021/09/28 08:58:23;;;;;;;3.83;2.80;;;14.00;94.10;;;;;;5004833;28;20108;-95
2021/09/28 09:01:18;;;;;;;3.83;2.42;;;14.10;93.90;;;;;;5008224;28;20037;-95
2021/09/28 09:12:42;;;;;;;7.80;3.78;;;14.30;92.40;;;;;;5025947;28;20630;-96
2021/09/28 09:15:46;;;;;;;;;;;;;;;;;;;;;
2021/09/28 09:22:32;;;;;;;7.13;4.20;;;14.20;91.40;;;;;;4958786;28;20049;-93
2021/09/28 09:24:59;;;;;;;5.93;3.30;;;14.10;91.20;;;;;;5012090;28;20473;-96
2021/09/28 09:27:45;;;;;;;4.80;3.75;;;14.00;92.10;;;;;;5038623;28;20039;-96
2021/09/28 09:30:58;;;;;;;;;;;;;;;;;;;;;
2021/09/28 09:37:05;;;;;;;;;;;;;;;;;;;;;
2021/09/28 09:40:10;;;;;;;;;;;;;;;;;;;;;
2021/09/28 09:42:53;;;;;;;5.78;3.97;;;14.30;91.90;;;;;;5028236;28;20120;-94
2021/09/28 09:45:24;;;;;;;8.18;4.07;;;14.50;91.40;;;;;;5036370;28;20037;-92
2021/09/28 09:48:13;;;;;;;5.38;3.53;;;14.50;91.20;;;;;;5033439;28;20155;-94
2021/09/28 09:51:19;;;;;;;5.00;3.80;;;14.60;91.50;;;;;;5031955;28;20077;-93
2021/09/28 09:53:58;;;;;;;10.15;3.50;;;14.70;90.40;;;;;;5021661;28;20034;-94
2021/09/28 09:56:47;;;;;;;5.15;3.22;;;14.80;91.10;;;;;;5037348;28;20045;-94
2021/09/28 09:59:15;;;;;;;5.45;3.40;;;14.90;90.30;;;;;;5035491;28;20258;-94
2021/09/28 10:01:47;;;;;;;3.25;2.95;;;14.90;89.80;;;;;;5033352;28;20435;-94
2021/09/28 10:04:26;;;;;;;5.30;3.45;;;14.80;90.10;;;;;;5033064;28;20045;-95
2021/09/28 10:06:56;;;;;;;5.72;3.80;;;14.80;89.00;;;;;;5008077;28;20041;-95
2021/09/28 10:09:37;;;;;;;6.00;4.05;;;14.80;88.70;;;;;;5036942;28;20440;-94
2021/09/28 10:12:12;;;;;;;6.70;3.63;;;14.80;86.50;;;;;;5028163;28;20034;-95
2021/09/28 10:14:46;;;;;;;7.27;4.47;;;14.80;88.20;;;;;;5037308;28;20040;-94
2021/09/28 10:17:51;;;;;;;6.47;4.30;;;14.90;88.30;;;;;;5035364;28;20041;-95
2021/09/28 10:20:21;;;;;;;11.57;3.85;;;14.90;87.30;;;;;;5021483;28;20060;-96
2021/09/28 10:23:12;;;;;;;5.57;3.42;;;14.90;88.20;;;;;;5041183;28;20452;-94
2021/09/28 10:25:44;;;;;;;4.55;3.33;;;15.00;87.80;;;;;;5031859;28;20037;-92
2021/09/28 10:28:19;;;;;;;6.70;3.08;;;15.00;88.40;;;;;;5048103;28;20021;-96
2021/09/28 10:34:45;;;;;;;;;;;;;;;;;;;;;
2021/09/28 10:47:36;;;;;;;;;;;;;;;;;;;;;
2021/09/28 14:12:40;;;;;;;6.68;2.88;;;13.40;92.10;;;;;;2857472;23;20307;-89
2021/09/28 14:18:20;;;;;;;6.57;2.67;;;13.10;92.00;;;;;;4929403;29;20047;-95
2021/09/28 14:21:44;;;;;;;;;;;;;;;;;;;;;
2021/09/28 14:24:39;;;;;;;;;;;;;;;;;;;;;
2021/09/28 15:01:54;;;;;;;2.90;1.70;;;12.50;89.90;;;;;;4759823;30;20451;-96
2021/09/28 15:04:42;;;;;;;1.58;0.98;;;12.50;90.10;;;;;;4757736;30;20078;-94
2021/09/28 15:28:07;;;;;;;1.15;1.00;;;12.70;91.50;;;;;;4869793;29;20101;-92
2021/09/28 15:34:27;;;;;;;3.70;2.05;;;12.70;91.90;;;;;;4868230;29;20053;-91
2021/09/28 15:40:40;;;;;;;6.47;2.70;;;12.60;92.40;;;;;;4881141;29;20040;-93
2021/09/28 15:43:33;;;;;;;6.93;1.95;;;12.60;92.40;;;;;;4881795;29;20475;-93
2021/09/28 15:46:02;;;;;;;5.45;2.42;;;12.60;92.50;;;;;;4866345;29;20502;-93
2021/09/28 15:48:27;;;;;;;8.07;2.10;;;12.50;92.90;;;;;;4910629;29;20040;-92
2021/09/28 15:50:59;;;;;;;3.00;2.55;;;12.50;92.70;;;;;;4902582;29;20035;-94
2021/09/28 15:53:30;;;;;;;8.57;3.03;;;12.50;93.10;;;;;;4920831;29;20047;-93
2021/09/28 15:55:57;;;;;;;9.93;3.55;;;12.50;93.20;;;;;;4921451;29;20039;-93
2021/09/28 15:58:23;;;;;;;4.28;2.70;;;12.50;93.60;;;;;;4902667;29;20043;-93
2021/09/28 16:00:52;;;;;;;3.13;2.17;;;12.40;93.70;;;;;;4902507;29;20032;-93
2021/09/28 16:03:19;;;;;;;3.83;2.97;;;12.40;93.80;;;;;;4919201;29;20086;-95
2021/09/28 16:05:45;;;;;;;4.57;2.85;;;12.40;94.00;;;;;;4919699;29;20035;-93
2021/09/28 16:08:10;;;;;;;3.28;2.55;;;12.40;94.40;;;;;;4903712;29;20032;-93
2021/09/28 16:10:40;;;;;;;3.75;2.00;;;12.40;94.30;;;;;;4903590;29;20028;-93
2021/09/28 16:13:13;;;;;;;4.80;3.15;;;12.40;94.50;;;;;;4921034;29;20072;-91
2021/09/28 16:15:51;;;;;;;6.20;3.20;;;12.40;94.40;;;;;;4918716;29;20039;-91
2021/09/28 16:18:18;;;;;;;4.82;3.25;;;12.40;94.60;;;;;;4925017;29;20036;-92
2021/09/28 16:20:47;;;;;;;3.20;2.35;;;12.30;94.90;;;;;;4902920;29;20032;-94
2021/09/28 16:23:14;;;;;;;3.03;2.30;;;12.30;94.80;;;;;;4919456;29;20040;-94
2021/09/28 16:25:53;;;;;;;8.43;2.45;;;12.30;95.20;;;;;;4924658;29;20038;-93
2021/09/28 16:28:21;;;;;;;4.85;3.50;;;12.30;95.40;;;;;;4940825;29;20039;-93
2021/09/28 16:31:13;;;;;;;4.55;3.55;;;12.30;95.80;;;;;;4956578;29;20360;-93
2021/09/28 16:33:51;;;;;;;3.83;3.05;;;12.30;96.70;;;;;;4956277;29;20090;-93
2021/09/28 16:36:20;;;;;;;7.13;2.67;;;12.20;96.00;;;;;;4940471;29;20039;-92
2021/09/28 16:38:55;;;;;;;4.35;2.50;;;12.20;95.90;;;;;;4940506;29;20075;-93
2021/09/28 16:41:27;;;;;;;4.22;2.40;;;12.20;95.90;;;;;;4941465;29;20035;-94
2021/09/28 16:43:56;;;;;;;11.40;4.63;;;12.10;96.10;;;;;;4940034;29;20062;-94
2021/09/28 16:46:25;;;;;;;11.77;4.32;;;12.10;96.90;;;;;;4940968;29;20117;-94
2021/09/28 16:48:52;;;;;;;6.75;3.70;;;12.00;96.30;;;;;;4939777;28;20034;-93
2021/09/28 16:51:23;;;;;;;7.53;3.97;;;11.90;96.60;;;;;;4939264;29;20042;-92
2021/09/28 16:54:03;;;;;;;4.43;3.22;;;11.80;97.00;;;;;;4964320;29;20031;-96
2021/09/28 16:56:43;;;;;;;8.63;4.03;;;11.80;97.20;;;;;;4947844;29;20050;-96
2021/09/28 16:59:10;;;;;;;6.57;2.72;;;11.70;96.90;;;;;;4947993;29;20471;-93
2021/09/28 17:01:54;;;;;;;6.32;3.35;;;11.70;97.10;;;;;;4913414;29;20067;-93
2021/09/28 17:04:27;;;;;;;5.43;2.88;;;11.60;97.40;;;;;;4916717;29;20143;-93
2021/09/28 17:06:59;;;;;;;5.75;2.65;;;11.60;97.10;;;;;;4900551;29;20040;-94
2021/09/28 17:09:29;;;;;;;9.20;3.20;;;11.50;97.30;;;;;;4900482;29;20061;-94
2021/09/28 17:11:56;;;;;;;5.97;3.58;;;11.40;97.30;;;;;;4885565;29;20397;-93
2021/09/28 17:14:28;;;;;;;5.72;3.70;;;11.50;97.80;;;;;;4910083;29;20048;-93
